createdAt,value
2022-10-31T00:02:34.124Z,50.40
2022-10-31T00:08:58.425Z,51.90
2022-10-31T00:15:22.613Z,52.40
2022-10-31T00:21:46.882Z,49.20
2022-10-31T00:28:11.241Z,51.20
2022-10-31T00:34:35.488Z,49.20
2022-10-31T00:40:59.687Z,50.30
2022-10-31T00:47:23.937Z,44.80
2022-10-31T00:53:48.249Z,43.50
2022-10-31T01:00:12.558Z,45.20
2022-10-31T01:06:39.549Z,44.30
2022-10-31T01:13:03.838Z,38.30
2022-10-31T01:19:27.536Z,37.60
2022-10-31T01:25:51.823Z,39.60
2022-10-31T01:32:16.524Z,37.90
2022-10-31T01:38:40.756Z,38.30
2022-10-31T01:45:05.080Z,37.80
2022-10-31T01:51:29.379Z,36.70
2022-10-31T01:57:36.464Z,35.10
2022-10-31T02:04:00.685Z,34.30
2022-10-31T02:10:24.944Z,31.50
2022-10-31T02:16:49.225Z,31.30
2022-10-31T02:23:19.371Z,30.70
2022-10-31T02:29:45.448Z,29.90
2022-10-31T02:36:07.188Z,32.70
2022-10-31T02:42:42.592Z,32.00
2022-10-31T02:49:07.058Z,30.50
2022-10-31T02:55:31.270Z,32.80
2022-10-31T03:02:17.009Z,25.60
2022-10-31T03:08:49.593Z,27.50
2022-10-31T03:15:22.862Z,25.80
2022-10-31T03:21:52.960Z,25.40
2022-10-31T03:34:41.482Z,21.90
2022-10-31T03:41:05.883Z,24.00
2022-10-31T03:47:30.099Z,23.50
2022-10-31T03:53:57.191Z,21.30
2022-10-31T04:00:33.705Z,23.40
2022-10-31T04:06:57.954Z,22.60
2022-10-31T04:13:22.447Z,21.80
2022-10-31T04:19:46.663Z,18.80
2022-10-31T04:26:10.992Z,20.00
2022-10-31T04:32:35.190Z,21.30
2022-10-31T04:38:59.415Z,18.50
2022-10-31T04:45:29.595Z,19.10
2022-10-31T04:51:53.869Z,20.00
2022-10-31T04:58:27.090Z,19.30
2022-10-31T05:04:51.282Z,19.90
2022-10-31T05:11:15.621Z,17.20
2022-10-31T05:17:40.001Z,19.30
2022-10-31T05:24:09.853Z,16.90
2022-10-31T05:30:33.999Z,16.20
2022-10-31T05:36:58.270Z,15.80
2022-10-31T05:43:15.135Z,16.70
2022-10-31T05:49:32.317Z,15.50
2022-10-31T05:55:56.584Z,16.20
2022-10-31T06:02:21.009Z,13.20
2022-10-31T06:08:45.416Z,13.50
2022-10-31T06:15:09.703Z,13.90
2022-10-31T06:21:33.907Z,14.30
2022-10-31T06:27:58.675Z,13.50
2022-10-31T06:34:22.946Z,12.80
2022-10-31T06:40:47.367Z,12.70
2022-10-31T06:47:21.131Z,11.70
2022-10-31T06:53:54.362Z,12.60
2022-10-31T07:00:18.621Z,13.10
2022-10-31T07:06:42.940Z,12.40
2022-10-31T07:13:07.250Z,12.10
2022-10-31T07:19:31.449Z,12.50
2022-10-31T07:25:55.851Z,10.10
2022-10-31T07:32:20.079Z,10.40
2022-10-31T07:38:50.060Z,11.30
2022-10-31T07:45:14.364Z,11.10
2022-10-31T07:51:54.291Z,13.20
2022-10-31T07:58:17.136Z,11.20
2022-10-31T08:04:41.420Z,11.60
2022-10-31T08:11:14.604Z,10.90
2022-10-31T08:17:38.843Z,11.00
2022-10-31T08:24:03.257Z,11.50
2022-10-31T08:30:27.541Z,11.60
2022-10-31T08:36:51.952Z,11.20
2022-10-31T08:43:22.335Z,13.50
2022-10-31T08:49:46.619Z,10.60
2022-10-31T08:56:10.851Z,12.00
2022-10-31T09:02:35.052Z,9.60
2022-10-31T09:09:02.106Z,10.30
2022-10-31T09:15:26.321Z,10.30
2022-10-31T09:21:50.545Z,10.90
2022-10-31T09:28:14.852Z,10.60
2022-10-31T09:34:39.042Z,11.40
2022-10-31T09:41:03.362Z,11.20
2022-10-31T09:47:39.685Z,11.70
2022-10-31T09:54:25.284Z,11.10
2022-10-31T10:00:49.792Z,11.90
2022-10-31T10:07:17.116Z,12.70
2022-10-31T10:13:43.259Z,11.90
2022-10-31T10:20:32.034Z,12.20
2022-10-31T10:26:59.416Z,11.40
2022-10-31T10:33:29.452Z,11.20
2022-10-31T10:39:53.877Z,10.60
2022-10-31T10:46:16.491Z,10.40
2022-10-31T10:52:55.705Z,9.40
2022-10-31T10:59:20.112Z,10.40
2022-10-31T11:05:44.488Z,10.10
2022-10-31T11:12:08.694Z,9.30
2022-10-31T11:18:38.807Z,9.20
2022-10-31T11:25:05.949Z,10.30
2022-10-31T11:31:30.243Z,9.30
2022-10-31T11:37:54.539Z,9.80
2022-10-31T11:44:18.754Z,8.00
2022-10-31T11:50:42.995Z,10.00
2022-10-31T11:57:07.287Z,10.10
2022-10-31T12:03:31.483Z,9.30
2022-10-31T12:09:55.782Z,8.80
2022-10-31T12:16:20.118Z,8.30
2022-10-31T12:22:50.432Z,9.50
2022-10-31T12:29:36.096Z,8.90
2022-10-31T12:36:29.991Z,8.20
2022-10-31T12:42:54.226Z,9.50
2022-10-31T12:49:17.169Z,8.40
2022-10-31T12:56:08.847Z,8.50
2022-10-31T13:02:36.006Z,8.10
2022-10-31T13:09:09.389Z,9.70
2022-10-31T13:15:36.625Z,7.80
2022-10-31T13:22:01.143Z,8.70
2022-10-31T13:28:47.120Z,8.90
2022-10-31T13:35:23.567Z,9.40
2022-10-31T13:41:53.797Z,8.40
2022-10-31T13:48:39.328Z,8.30
2022-10-31T13:55:06.198Z,7.30
2022-10-31T14:01:32.790Z,8.00
2022-10-31T14:08:03.366Z,8.30
2022-10-31T14:14:31.160Z,7.80
2022-10-31T14:21:01.341Z,8.50
2022-10-31T14:27:25.701Z,8.70
2022-10-31T14:34:01.773Z,9.10
2022-10-31T14:40:44.502Z,8.80
2022-10-31T14:47:17.490Z,10.40
2022-10-31T14:53:41.798Z,10.40
2022-10-31T15:00:11.737Z,9.30
2022-10-31T15:06:36.058Z,11.00
2022-10-31T15:13:05.911Z,9.00
2022-10-31T15:19:38.927Z,10.20
2022-10-31T15:26:03.201Z,10.60
2022-10-31T15:32:36.146Z,10.30
2022-10-31T15:39:00.432Z,11.40
2022-10-31T15:45:24.731Z,10.20
2022-10-31T15:51:54.126Z,13.30
2022-10-31T15:58:21.226Z,12.20
2022-10-31T16:04:54.580Z,11.30
2022-10-31T16:11:24.881Z,13.90
2022-10-31T16:17:49.240Z,12.90
2022-10-31T16:24:13.435Z,13.90
2022-10-31T16:30:45.420Z,13.90
2022-10-31T16:37:30.346Z,13.30
2022-10-31T16:43:54.631Z,12.70
2022-10-31T16:50:19.142Z,13.90
2022-10-31T16:56:43.371Z,13.40
2022-10-31T17:03:07.693Z,12.60
2022-10-31T17:09:32.045Z,14.20
2022-10-31T17:15:56.269Z,14.70
2022-10-31T17:22:20.751Z,16.70
2022-10-31T17:28:44.969Z,17.50
2022-10-31T17:35:09.212Z,19.00
2022-10-31T17:41:33.538Z,16.80
2022-10-31T17:47:57.884Z,16.70
2022-10-31T17:54:22.147Z,21.10
2022-10-31T18:00:50.389Z,19.40
2022-10-31T18:07:10.800Z,17.10
2022-10-31T18:13:35.142Z,22.60
2022-10-31T18:19:58.932Z,17.10
2022-10-31T18:26:23.171Z,16.80
2022-10-31T18:32:47.419Z,18.40
2022-10-31T18:39:11.696Z,19.40
2022-10-31T18:45:54.995Z,21.90
2022-10-31T18:52:20.199Z,20.70
2022-10-31T18:58:44.444Z,18.90
2022-10-31T19:05:08.708Z,18.20
2022-10-31T19:11:33.047Z,18.80
2022-10-31T19:17:47.119Z,17.30
2022-10-31T19:24:11.454Z,16.70
2022-10-31T19:30:35.724Z,19.30
2022-10-31T19:36:59.908Z,18.10
2022-10-31T19:49:53.380Z,16.30
2022-10-31T19:56:17.594Z,19.50
2022-10-31T20:02:41.976Z,15.70
2022-10-31T20:09:06.335Z,17.80
2022-10-31T20:15:30.603Z,17.40
2022-10-31T20:21:54.911Z,18.20
2022-10-31T20:28:19.450Z,16.80
2022-10-31T20:34:43.710Z,14.60
2022-10-31T20:41:08.176Z,14.90
2022-10-31T20:47:32.376Z,16.20
2022-10-31T20:53:56.574Z,13.60
2022-10-31T21:00:20.878Z,15.10
2022-10-31T21:06:49.271Z,16.00
2022-10-31T21:13:14.035Z,14.50
2022-10-31T21:19:38.215Z,13.90
2022-10-31T21:26:02.388Z,14.70
2022-10-31T21:32:26.625Z,14.10
2022-10-31T21:38:50.976Z,12.20
2022-10-31T21:45:15.157Z,13.90
2022-10-31T21:51:39.311Z,12.30
2022-10-31T21:58:03.945Z,13.70
2022-10-31T22:04:28.500Z,12.90
2022-10-31T22:10:53.234Z,11.50
2022-10-31T22:17:17.560Z,11.00
2022-10-31T22:23:41.837Z,11.10
2022-10-31T22:30:06.025Z,10.50
2022-10-31T22:36:30.289Z,13.10
2022-10-31T22:42:54.528Z,11.80
2022-10-31T22:49:18.912Z,11.80
2022-10-31T22:55:43.134Z,11.60
2022-10-31T23:02:08.617Z,11.80
2022-10-31T23:08:35.813Z,10.10
2022-10-31T23:14:59.887Z,11.10
2022-10-31T23:21:24.241Z,9.30
2022-10-31T23:27:51.211Z,9.80
2022-10-31T23:34:15.409Z,10.80
2022-10-31T23:40:40.799Z,8.90
2022-10-31T23:47:05.034Z,9.90
2022-10-31T23:53:29.303Z,11.40
2022-10-31T23:59:53.609Z,10.20
